This is the latest recevied weather packets stored in our database for station/object KN6WGU. If no packets are shown the sender has not sent any weather packets the latest 1 day(s).
| Time | Temp. | Humidity | Pressure | Rain* | Wind** | Luminosity | Snow |
|---|---|---|---|---|---|---|---|
| 1778021545 | 10° C | 98% | 1002.2 hPa | 7.87 mm | 0 m/s | 8 W/m² | - |
| 1778021240 | 10° C | 98% | 1001.8 hPa | 7.87 mm | 0 m/s | 10 W/m² | - |
| 1778020938 | 10° C | 98% | 1002 hPa | 4.32 mm | 0 m/s | 13 W/m² | - |
| 1778020636 | 10° C | 98% | 1002 hPa | 4.83 mm | 0 m/s | 8 W/m² | - |
| 1778020332 | 10° C | 98% | 1002.1 hPa | 6.1 mm | 0 m/s | 8 W/m² | - |
| 1778020028 | 10° C | 98% | 1002 hPa | 4.83 mm | 0.45 m/s, 97° | 22 W/m² | - |
| 1778019724 | 10.56° C | 98% | 1002 hPa | 4.83 mm | 0.89 m/s, 193° | 7 W/m² | - |
| 1778019422 | 10.56° C | 98% | 1001.5 hPa | 4.83 mm | 0.45 m/s, 103° | 24 W/m² | - |
| 1778019118 | 10.56° C | 98% | 1001.5 hPa | 4.83 mm | 0.45 m/s, 133° | 28 W/m² | - |
| 1778018815 | 10.56° C | 98% | 1001.8 hPa | 10.16 mm | 0 m/s | 19 W/m² | - |
| 1778018513 | 10.56° C | 98% | 1001.9 hPa | 13.72 mm | 0 m/s | 23 W/m² | - |
| 1778018210 | 10.56° C | 98% | 1001.8 hPa | 7.87 mm | 0 m/s | 11 W/m² | - |
| 1778017908 | 10.56° C | 98% | 1001.5 hPa | 6.1 mm | 0 m/s | 21 W/m² | - |
| 1778017606 | 11.11° C | 98% | 1001.3 hPa | 4.83 mm | 0 m/s | 11 W/m² | - |
| 1778017303 | 11.11° C | 98% | 1001.4 hPa | 3.05 mm | 0 m/s | 8 W/m² | - |
| 1778017000 | 10.56° C | 98% | 1000.9 hPa | 3.05 mm | 0 m/s | 31 W/m² | - |
| 1778016697 | 10.56° C | 98% | 1001.1 hPa | 3.05 mm | 0 m/s | 34 W/m² | - |
| 1778016392 | 10.56° C | 98% | 1001.3 hPa | 1.27 mm | 0.45 m/s, 225° | 16 W/m² | - |
| 1778016091 | 10.56° C | 98% | 1001.3 hPa | 4.32 mm | 0 m/s | 27 W/m² | - |
| 1778015787 | 11.11° C | 98% | 1001 hPa | 6.6 mm | 0 m/s | 57 W/m² | - |
| 1778015485 | 11.11° C | 98% | 1000.9 hPa | 6.1 mm | 0.45 m/s, 144° | 71 W/m² | - |
| 1778015181 | 11.67° C | 98% | 1001.1 hPa | 3.05 mm | 0.45 m/s, 92° | 26 W/m² | - |
| 1778014878 | 11.67° C | 98% | 1001 hPa | 3.05 mm | 0 m/s | 27 W/m² | - |
| 1778014575 | 11.67° C | 98% | 1001.3 hPa | 7.87 mm | 0 m/s | 20 W/m² | - |
| 1778014273 | 11.67° C | 98% | 1001.2 hPa | 6.1 mm | 0.45 m/s, 143° | 30 W/m² | - |
* Rain latest hour (hover to see other rain measurements)
** Current wind speed in m/s (hover to see current wind gust speed)